Time;durP1;ratioP1;P1;durP2;ratioP2;P2;SDS_P1;SDS_P2;PMS_P1;PMS_P2;Temp;Humidity;BMP_temperature;BMP_pressure;BME280_temperature;BME280_humidity;BME280_pressure;Samples;Min_cycle;Max_cycle;Signal;HPM_P1;HPM_P2
2022/01/06 00:01:24;;;;;;;7.90;6.10;;;;;;;;;;5039209;28;20216;-53
2022/01/06 00:03:54;;;;;;;7.78;5.68;;;;;;;;;;5039465;28;20212;-53
2022/01/06 00:06:23;;;;;;;8.65;5.85;;;;;;;;;;5039937;28;20209;-53
2022/01/06 00:08:53;;;;;;;6.80;5.30;;;;;;;;;;5032370;28;20645;-53
2022/01/06 00:11:20;;;;;;;8.70;5.55;;;;;;;;;;5019935;28;20214;-53
2022/01/06 00:13:54;;;;;;;6.40;4.95;;;;;;;;;;5019771;28;20229;-53
2022/01/06 00:16:36;;;;;;;6.90;4.80;;;;;;;;;;5019489;28;20760;-53
2022/01/06 00:24:33;;;;;;;6.68;4.65;;;;;;;;;;5019453;28;20567;-52
2022/01/06 00:27:00;;;;;;;6.65;4.22;;;;;;;;;;5019672;28;20208;-53
2022/01/06 00:29:27;;;;;;;4.47;3.63;;;;;;;;;;5019287;28;20593;-52
2022/01/06 00:31:57;;;;;;;6.25;4.50;;;;;;;;;;5019257;28;20221;-53
2022/01/06 00:34:24;;;;;;;5.43;3.85;;;;;;;;;;5019731;28;20213;-52
2022/01/06 00:36:51;;;;;;;5.10;3.78;;;;;;;;;;5019240;28;20634;-53
2022/01/06 00:39:18;;;;;;;4.85;3.60;;;;;;;;;;5019642;28;20207;-53
2022/01/06 00:41:46;;;;;;;6.20;3.90;;;;;;;;;;5019262;28;20217;-52
2022/01/06 00:44:14;;;;;;;4.35;3.30;;;;;;;;;;5018712;28;20206;-52
2022/01/06 00:46:42;;;;;;;4.22;3.38;;;;;;;;;;5018884;28;20590;-53
2022/01/06 00:49:10;;;;;;;3.95;3.13;;;;;;;;;;5019311;28;20230;-53
2022/01/06 00:51:38;;;;;;;3.72;2.90;;;;;;;;;;5019069;28;20211;-54
2022/01/06 00:54:05;;;;;;;4.22;3.03;;;;;;;;;;5019096;28;20636;-53
2022/01/06 00:56:32;;;;;;;4.40;3.10;;;;;;;;;;5018849;28;20217;-53
2022/01/06 00:59:00;;;;;;;3.53;2.85;;;;;;;;;;5018959;28;20222;-53
2022/01/06 01:01:27;;;;;;;5.05;3.22;;;;;;;;;;5019143;28;20504;-53
2022/01/06 01:03:55;;;;;;;3.53;2.72;;;;;;;;;;5025531;28;20359;-53
2022/01/06 01:06:23;;;;;;;4.15;2.60;;;;;;;;;;5038509;28;20213;-53
2022/01/06 01:08:51;;;;;;;2.83;2.42;;;;;;;;;;5038644;28;20256;-53
2022/01/06 01:11:18;;;;;;;3.35;2.35;;;;;;;;;;5037584;28;20213;-54
2022/01/06 01:13:55;;;;;;;3.67;2.50;;;;;;;;;;5037951;28;20482;-52
2022/01/06 01:16:26;;;;;;;4.30;2.70;;;;;;;;;;5037271;28;20206;-53
2022/01/06 01:18:56;;;;;;;3.75;2.50;;;;;;;;;;5037988;28;20292;-53
2022/01/06 01:21:27;;;;;;;3.72;2.30;;;;;;;;;;5038319;28;20271;-53
2022/01/06 01:23:54;;;;;;;3.95;2.50;;;;;;;;;;5038137;28;20206;-53
2022/01/06 01:26:23;;;;;;;3.33;2.35;;;;;;;;;;5044574;28;20205;-54
2022/01/06 01:28:51;;;;;;;3.33;2.13;;;;;;;;;;5047981;28;20240;-56
2022/01/06 01:31:32;;;;;;;3.70;2.22;;;;;;;;;;5024913;28;20269;-53
2022/01/06 01:34:06;;;;;;;3.05;1.85;;;;;;;;;;5019473;28;20207;-53
2022/01/06 01:36:35;;;;;;;2.65;1.98;;;;;;;;;;5018699;28;20245;-53
2022/01/06 01:39:02;;;;;;;3.22;2.10;;;;;;;;;;5017968;28;20648;-53
2022/01/06 01:41:31;;;;;;;2.55;1.95;;;;;;;;;;5028416;28;20208;-53
2022/01/06 01:43:58;;;;;;;2.35;1.70;;;;;;;;;;5037885;28;20506;-53
2022/01/06 01:46:29;;;;;;;2.95;1.98;;;;;;;;;;5037553;28;20209;-54
2022/01/06 01:49:13;;;;;;;3.38;1.85;;;;;;;;;;5037363;28;20239;-53
2022/01/06 01:51:42;;;;;;;2.22;1.63;;;;;;;;;;5038085;28;20213;-53
2022/01/06 01:54:10;;;;;;;2.58;1.73;;;;;;;;;;5037857;28;20212;-53
2022/01/06 01:56:39;;;;;;;2.72;1.67;;;;;;;;;;5031426;28;20198;-53
2022/01/06 01:59:06;;;;;;;2.20;1.55;;;;;;;;;;5018402;28;20202;-53
2022/01/06 02:01:33;;;;;;;2.08;1.60;;;;;;;;;;5018070;28;20206;-53
2022/01/06 02:04:01;;;;;;;1.75;1.40;;;;;;;;;;5017864;28;20550;-53
2022/01/06 02:06:28;;;;;;;2.55;1.20;;;;;;;;;;5017633;28;20213;-53
2022/01/06 02:08:57;;;;;;;2.30;1.60;;;;;;;;;;5017611;28;20261;-53
2022/01/06 02:11:25;;;;;;;1.98;1.33;;;;;;;;;;5017294;28;20206;-53
2022/01/06 02:13:55;;;;;;;2.25;1.42;;;;;;;;;;5016843;28;20213;-53
2022/01/06 02:16:22;;;;;;;1.70;1.25;;;;;;;;;;5017210;28;20701;-53
2022/01/06 02:18:50;;;;;;;1.70;1.35;;;;;;;;;;5016967;28;20202;-53
2022/01/06 02:21:19;;;;;;;1.73;1.40;;;;;;;;;;5017306;28;20617;-54
2022/01/06 02:23:47;;;;;;;1.83;1.33;;;;;;;;;;5027942;28;20209;-53
2022/01/06 02:26:15;;;;;;;1.50;1.33;;;;;;;;;;5036482;28;20206;-53
2022/01/06 02:28:42;;;;;;;1.45;1.25;;;;;;;;;;5036556;28;20236;-53
2022/01/06 02:31:09;;;;;;;1.35;1.25;;;;;;;;;;5036556;28;20815;-54
2022/01/06 02:33:37;;;;;;;1.42;1.10;;;;;;;;;;5037179;28;20233;-53
2022/01/06 02:36:05;;;;;;;1.27;1.15;;;;;;;;;;5034119;28;20240;-53
2022/01/06 02:38:34;;;;;;;1.75;1.30;;;;;;;;;;5036597;28;20576;-55
2022/01/06 02:41:02;;;;;;;1.63;1.10;;;;;;;;;;5036671;28;20197;-53
2022/01/06 02:43:30;;;;;;;1.42;0.95;;;;;;;;;;5039533;28;20537;-53
2022/01/06 02:45:58;;;;;;;1.33;1.10;;;;;;;;;;5041041;28;20205;-53
2022/01/06 02:48:25;;;;;;;1.30;1.10;;;;;;;;;;5040425;28;20225;-53
2022/01/06 02:50:53;;;;;;;1.25;0.98;;;;;;;;;;5023013;28;20524;-54
2022/01/06 02:53:21;;;;;;;2.25;1.00;;;;;;;;;;5020623;28;20220;-53
2022/01/06 02:55:53;;;;;;;1.30;1.10;;;;;;;;;;5020467;28;20210;-53
2022/01/06 02:58:21;;;;;;;1.10;1.00;;;;;;;;;;5020441;28;20305;-53
2022/01/06 03:00:48;;;;;;;1.13;0.88;;;;;;;;;;5021330;28;20206;-53
2022/01/06 03:03:16;;;;;;;1.23;1.00;;;;;;;;;;5021104;28;20213;-53
2022/01/06 03:05:43;;;;;;;1.08;0.98;;;;;;;;;;5020919;28;20225;-53
2022/01/06 03:08:11;;;;;;;1.42;0.90;;;;;;;;;;5021357;28;20206;-53
2022/01/06 03:10:42;;;;;;;1.17;1.00;;;;;;;;;;5021025;28;20242;-53
2022/01/06 03:13:11;;;;;;;1.15;0.90;;;;;;;;;;5021073;28;20206;-53
2022/01/06 03:15:38;;;;;;;0.98;0.82;;;;;;;;;;5024210;28;20205;-53
2022/01/06 03:18:06;;;;;;;1.17;0.90;;;;;;;;;;5040714;28;20525;-53
2022/01/06 03:20:34;;;;;;;2.20;1.17;;;;;;;;;;5040839;28;20217;-53
2022/01/06 03:23:01;;;;;;;1.10;0.80;;;;;;;;;;5040179;28;20304;-53
2022/01/06 03:25:29;;;;;;;1.60;0.98;;;;;;;;;;5040816;28;20477;-53
2022/01/06 03:27:56;;;;;;;1.00;0.80;;;;;;;;;;5040216;28;20206;-53
2022/01/06 03:30:25;;;;;;;1.10;0.80;;;;;;;;;;5041241;28;20474;-53
2022/01/06 03:32:53;;;;;;;1.05;0.88;;;;;;;;;;5039903;28;20210;-53
2022/01/06 03:35:21;;;;;;;1.50;0.73;;;;;;;;;;5040268;28;20210;-53
2022/01/06 03:37:49;;;;;;;1.40;1.00;;;;;;;;;;5039901;28;20209;-53
2022/01/06 03:40:16;;;;;;;0.95;0.70;;;;;;;;;;5039990;28;20213;-53
2022/01/06 03:42:44;;;;;;;1.10;0.73;;;;;;;;;;5039249;28;20644;-53
2022/01/06 03:45:13;;;;;;;1.17;0.70;;;;;;;;;;5040341;28;20610;-53
2022/01/06 03:47:42;;;;;;;1.25;0.80;;;;;;;;;;5039965;28;20213;-53
2022/01/06 03:50:09;;;;;;;1.55;0.93;;;;;;;;;;5040018;28;20218;-53
2022/01/06 03:52:37;;;;;;;1.05;0.85;;;;;;;;;;5040192;28;20212;-53
2022/01/06 03:55:05;;;;;;;1.00;0.70;;;;;;;;;;5038675;28;20206;-53
2022/01/06 03:57:32;;;;;;;1.02;0.80;;;;;;;;;;5039463;28;20255;-52
2022/01/06 03:59:59;;;;;;;1.30;0.80;;;;;;;;;;5039982;28;20209;-53
2022/01/06 04:02:27;;;;;;;1.10;0.80;;;;;;;;;;5040188;28;20585;-52
2022/01/06 04:04:55;;;;;;;1.27;0.65;;;;;;;;;;5039944;28;20212;-53
2022/01/06 04:07:23;;;;;;;0.88;0.68;;;;;;;;;;5039833;28;20217;-53
2022/01/06 04:09:50;;;;;;;0.88;0.60;;;;;;;;;;5024941;28;20644;-53
2022/01/06 04:12:18;;;;;;;1.10;0.70;;;;;;;;;;5019667;28;20217;-52
2022/01/06 04:14:45;;;;;;;1.45;0.80;;;;;;;;;;5020090;28;20206;-53
2022/01/06 04:17:12;;;;;;;0.90;0.57;;;;;;;;;;5019274;28;20214;-53
2022/01/06 04:19:40;;;;;;;0.70;0.70;;;;;;;;;;5019233;28;20215;-53
2022/01/06 04:22:08;;;;;;;0.75;0.50;;;;;;;;;;5019180;28;20206;-53
2022/01/06 04:24:36;;;;;;;1.38;0.60;;;;;;;;;;5019270;28;20221;-53
2022/01/06 04:27:04;;;;;;;0.63;0.63;;;;;;;;;;5019155;28;20594;-52
2022/01/06 04:29:31;;;;;;;2.00;0.73;;;;;;;;;;5018623;28;20237;-53
2022/01/06 04:31:59;;;;;;;0.70;0.50;;;;;;;;;;5019087;28;20591;-52
2022/01/06 04:34:26;;;;;;;1.20;0.70;;;;;;;;;;5018927;28;20210;-53
2022/01/06 04:36:54;;;;;;;0.63;0.57;;;;;;;;;;5037401;28;20656;-52
2022/01/06 04:39:23;;;;;;;0.75;0.70;;;;;;;;;;5038595;28;20752;-53
2022/01/06 04:41:50;;;;;;;0.98;0.70;;;;;;;;;;5038859;28;20520;-53
2022/01/06 04:44:18;;;;;;;0.90;0.70;;;;;;;;;;5038780;28;20213;-52
2022/01/06 04:46:45;;;;;;;0.90;0.50;;;;;;;;;;5039126;28;20268;-53
2022/01/06 04:49:12;;;;;;;0.80;0.60;;;;;;;;;;5043390;28;20671;-53
2022/01/06 04:51:40;;;;;;;0.68;0.60;;;;;;;;;;5048047;28;20206;-53
2022/01/06 04:54:08;;;;;;;0.82;0.50;;;;;;;;;;5043640;28;20221;-53
2022/01/06 04:56:37;;;;;;;0.52;0.50;;;;;;;;;;5038265;28;20213;-53
2022/01/06 04:59:05;;;;;;;0.65;0.50;;;;;;;;;;5039132;28;20562;-52
2022/01/06 05:01:32;;;;;;;1.02;0.80;;;;;;;;;;5035121;28;20210;-52
2022/01/06 05:04:00;;;;;;;1.13;0.52;;;;;;;;;;5018804;28;20211;-52
2022/01/06 05:06:27;;;;;;;0.50;0.50;;;;;;;;;;5018535;28;20489;-53
2022/01/06 05:08:55;;;;;;;0.82;0.50;;;;;;;;;;5018850;28;20230;-52
2022/01/06 05:11:23;;;;;;;0.80;0.70;;;;;;;;;;5018239;28;20206;-53
2022/01/06 05:13:52;;;;;;;0.68;0.52;;;;;;;;;;5018811;28;20214;-53
2022/01/06 05:16:19;;;;;;;0.98;0.70;;;;;;;;;;5018420;28;20598;-53
2022/01/06 05:18:46;;;;;;;0.80;0.60;;;;;;;;;;5018585;28;20217;-53
2022/01/06 05:21:14;;;;;;;0.77;0.70;;;;;;;;;;5018720;28;20221;-53
2022/01/06 05:23:42;;;;;;;0.65;0.43;;;;;;;;;;5018659;28;20217;-53
2022/01/06 05:26:09;;;;;;;0.70;0.55;;;;;;;;;;5017996;28;20213;-54
2022/01/06 05:28:37;;;;;;;0.60;0.50;;;;;;;;;;5026992;28;20578;-52
2022/01/06 05:31:06;;;;;;;1.13;0.70;;;;;;;;;;5037278;28;20206;-53
2022/01/06 05:33:33;;;;;;;1.13;0.65;;;;;;;;;;5037874;28;20213;-52
2022/01/06 05:36:00;;;;;;;0.80;0.60;;;;;;;;;;5037213;28;20249;-52
2022/01/06 05:38:28;;;;;;;0.50;0.50;;;;;;;;;;5037480;28;20217;-53
2022/01/06 05:40:55;;;;;;;0.70;0.60;;;;;;;;;;5037464;28;20213;-53
2022/01/06 05:43:23;;;;;;;0.60;0.50;;;;;;;;;;5037980;28;20213;-53
2022/01/06 05:45:53;;;;;;;0.70;0.65;;;;;;;;;;5036789;28;20540;-53
2022/01/06 05:48:23;;;;;;;0.88;0.63;;;;;;;;;;5036387;28;20529;-52
2022/01/06 05:50:51;;;;;;;0.73;0.47;;;;;;;;;;5036965;28;20648;-53
2022/01/06 05:53:19;;;;;;;0.88;0.60;;;;;;;;;;5036616;28;20749;-53
2022/01/06 05:55:46;;;;;;;0.70;0.50;;;;;;;;;;5021143;28;20210;-53
2022/01/06 05:58:13;;;;;;;1.25;0.50;;;;;;;;;;5016214;28;20609;-53
2022/01/06 06:00:40;;;;;;;1.10;0.60;;;;;;;;;;5015641;28;20217;-53
2022/01/06 06:03:08;;;;;;;1.20;0.60;;;;;;;;;;5015522;28;20481;-52
2022/01/06 06:05:40;;;;;;;0.55;0.43;;;;;;;;;;5016139;28;20206;-53
2022/01/06 06:08:07;;;;;;;0.60;0.55;;;;;;;;;;5016320;28;20621;-53
2022/01/06 06:10:34;;;;;;;0.95;0.50;;;;;;;;;;5016584;28;20241;-52
2022/01/06 06:13:02;;;;;;;1.02;0.65;;;;;;;;;;5027276;28;20202;-53
2022/01/06 06:15:34;;;;;;;1.20;0.70;;;;;;;;;;5035272;28;20201;-53
2022/01/06 06:18:01;;;;;;;0.60;0.52;;;;;;;;;;5034376;28;20260;-53
2022/01/06 06:20:28;;;;;;;0.60;0.50;;;;;;;;;;5034986;28;20205;-53
2022/01/06 06:22:57;;;;;;;0.77;0.40;;;;;;;;;;5034588;28;20206;-52
2022/01/06 06:25:24;;;;;;;1.02;0.50;;;;;;;;;;5035374;28;20213;-53
2022/01/06 06:27:51;;;;;;;1.25;0.70;;;;;;;;;;5035324;28;20720;-53
2022/01/06 06:30:19;;;;;;;0.50;0.40;;;;;;;;;;5034994;28;20229;-53
2022/01/06 06:32:47;;;;;;;0.50;0.50;;;;;;;;;;5034821;28;20206;-53
2022/01/06 06:35:14;;;;;;;0.70;0.50;;;;;;;;;;5034760;28;20676;-52
2022/01/06 06:37:41;;;;;;;1.17;0.50;;;;;;;;;;5035112;28;20570;-52
2022/01/06 06:40:11;;;;;;;0.50;0.40;;;;;;;;;;5016426;28;20563;-53
2022/01/06 06:42:39;;;;;;;0.68;0.50;;;;;;;;;;5014528;28;20592;-53
2022/01/06 06:45:08;;;;;;;0.70;0.40;;;;;;;;;;5015157;28;20206;-53
2022/01/06 06:47:35;;;;;;;0.57;0.50;;;;;;;;;;5014593;28;20238;-52
2022/01/06 06:50:03;;;;;;;1.02;0.50;;;;;;;;;;5014536;28;20221;-53
2022/01/06 06:52:31;;;;;;;0.80;0.60;;;;;;;;;;5015169;28;20207;-52
2022/01/06 06:54:58;;;;;;;0.95;0.50;;;;;;;;;;5014926;28;20214;-53
2022/01/06 06:57:28;;;;;;;0.63;0.50;;;;;;;;;;5015029;28;20590;-53
2022/01/06 06:59:56;;;;;;;0.60;0.50;;;;;;;;;;5015026;28;20214;-52
2022/01/06 07:02:24;;;;;;;0.50;0.50;;;;;;;;;;5014620;28;20293;-53
2022/01/06 07:04:51;;;;;;;1.30;0.68;;;;;;;;;;5014614;28;20198;-52
2022/01/06 07:07:18;;;;;;;0.60;0.43;;;;;;;;;;5016065;28;20206;-53
2022/01/06 07:09:46;;;;;;;0.80;0.45;;;;;;;;;;5015491;28;20222;-53
2022/01/06 07:12:13;;;;;;;0.85;0.50;;;;;;;;;;5015135;28;20712;-52
2022/01/06 07:14:42;;;;;;;1.27;0.57;;;;;;;;;;5015508;28;20218;-53
2022/01/06 07:17:09;;;;;;;0.88;0.60;;;;;;;;;;5015520;28;20206;-52
2022/01/06 07:19:37;;;;;;;0.52;0.40;;;;;;;;;;5015118;28;20205;-53
2022/01/06 07:22:05;;;;;;;0.95;0.50;;;;;;;;;;5015462;28;20273;-52
2022/01/06 07:24:32;;;;;;;0.40;0.40;;;;;;;;;;5014985;28;20272;-53
2022/01/06 07:27:00;;;;;;;0.88;0.50;;;;;;;;;;5015293;28;20205;-52
2022/01/06 07:29:28;;;;;;;1.27;0.50;;;;;;;;;;5017523;28;20198;-52
2022/01/06 07:31:56;;;;;;;0.50;0.50;;;;;;;;;;5028032;28;20198;-53
2022/01/06 07:34:24;;;;;;;0.60;0.50;;;;;;;;;;5039733;28;20214;-52
2022/01/06 07:36:51;;;;;;;0.90;0.60;;;;;;;;;;5038733;28;20225;-53
2022/01/06 07:39:18;;;;;;;0.52;0.50;;;;;;;;;;5039094;28;20221;-53
2022/01/06 07:41:46;;;;;;;1.00;0.43;;;;;;;;;;5037861;28;20210;-52
2022/01/06 07:44:13;;;;;;;0.75;0.65;;;;;;;;;;5038679;28;20202;-53
2022/01/06 07:46:42;;;;;;;0.30;0.30;;;;;;;;;;5038306;28;20235;-53
2022/01/06 07:49:11;;;;;;;0.50;0.50;;;;;;;;;;5038575;28;20312;-53
2022/01/06 07:51:38;;;;;;;1.00;0.50;;;;;;;;;;5033770;28;20249;-52
2022/01/06 07:54:06;;;;;;;0.60;0.50;;;;;;;;;;5018373;28;20202;-53
2022/01/06 07:56:33;;;;;;;0.88;0.55;;;;;;;;;;5017788;28;20214;-53
2022/01/06 07:59:00;;;;;;;0.60;0.50;;;;;;;;;;5018061;28;20226;-53
2022/01/06 08:01:28;;;;;;;0.38;0.38;;;;;;;;;;5018111;28;20237;-53
2022/01/06 08:03:55;;;;;;;0.75;0.50;;;;;;;;;;5017413;28;20210;-52
2022/01/06 08:06:24;;;;;;;0.80;0.60;;;;;;;;;;5017810;28;20206;-53
2022/01/06 08:08:51;;;;;;;0.40;0.40;;;;;;;;;;5018158;28;20213;-52
2022/01/06 08:11:19;;;;;;;0.50;0.50;;;;;;;;;;5018436;28;20230;-52
2022/01/06 08:13:46;;;;;;;1.10;0.70;;;;;;;;;;5017653;28;20217;-52
2022/01/06 08:16:13;;;;;;;0.70;0.50;;;;;;;;;;5018486;28;20206;-52
2022/01/06 08:18:41;;;;;;;0.57;0.57;;;;;;;;;;5026224;28;20201;-53
2022/01/06 08:21:08;;;;;;;0.47;0.40;;;;;;;;;;5041285;28;20208;-53
2022/01/06 08:23:37;;;;;;;0.52;0.50;;;;;;;;;;5046844;28;20201;-54
2022/01/06 08:26:05;;;;;;;0.52;0.50;;;;;;;;;;5042314;28;20205;-52
2022/01/06 08:28:32;;;;;;;0.60;0.60;;;;;;;;;;5017183;28;20202;-53
2022/01/06 08:30:59;;;;;;;0.50;0.40;;;;;;;;;;5017940;28;20237;-53
2022/01/06 08:33:27;;;;;;;0.73;0.50;;;;;;;;;;5017810;28;20587;-52
2022/01/06 08:35:54;;;;;;;0.52;0.50;;;;;;;;;;5017454;28;20316;-53
2022/01/06 08:38:22;;;;;;;0.45;0.40;;;;;;;;;;5017092;28;20618;-53
2022/01/06 08:40:51;;;;;;;0.57;0.50;;;;;;;;;;5016981;28;20203;-53
2022/01/06 08:43:18;;;;;;;0.75;0.70;;;;;;;;;;5017558;28;20217;-53
2022/01/06 08:45:46;;;;;;;0.50;0.40;;;;;;;;;;5030869;28;20589;-52
2022/01/06 08:48:13;;;;;;;0.50;0.40;;;;;;;;;;5036274;28;20197;-53
2022/01/06 08:50:41;;;;;;;0.60;0.40;;;;;;;;;;5036662;28;20233;-53
2022/01/06 08:53:08;;;;;;;0.50;0.50;;;;;;;;;;5036141;28;20206;-53
2022/01/06 08:55:35;;;;;;;0.73;0.60;;;;;;;;;;5036177;28;20213;-52
2022/01/06 08:58:04;;;;;;;0.65;0.50;;;;;;;;;;5035860;28;20205;-53
2022/01/06 09:00:32;;;;;;;1.08;0.50;;;;;;;;;;5035693;28;20202;-53
2022/01/06 09:02:59;;;;;;;1.05;0.60;;;;;;;;;;5036162;28;20604;-53
2022/01/06 09:05:26;;;;;;;0.73;0.60;;;;;;;;;;5035864;28;20216;-52
2022/01/06 09:07:54;;;;;;;0.60;0.60;;;;;;;;;;5036711;28;20205;-52
2022/01/06 09:10:23;;;;;;;0.70;0.60;;;;;;;;;;5035623;28;20218;-53
2022/01/06 09:12:50;;;;;;;0.60;0.60;;;;;;;;;;5030879;28;20301;-53
2022/01/06 09:15:19;;;;;;;0.50;0.50;;;;;;;;;;5036962;28;20487;-53
2022/01/06 09:17:46;;;;;;;0.50;0.50;;;;;;;;;;5036105;28;20216;-53
2022/01/06 09:20:14;;;;;;;0.95;0.60;;;;;;;;;;5036237;28;20226;-52
2022/01/06 09:22:43;;;;;;;0.70;0.60;;;;;;;;;;5035571;28;20255;-53
2022/01/06 09:25:10;;;;;;;0.85;0.57;;;;;;;;;;5035467;28;20217;-52
2022/01/06 09:27:38;;;;;;;0.70;0.47;;;;;;;;;;5036238;28;20217;-53
2022/01/06 09:30:06;;;;;;;0.75;0.50;;;;;;;;;;5036343;28;20197;-53
2022/01/06 09:32:35;;;;;;;1.50;1.02;;;;;;;;;;5036220;28;20205;-52
2022/01/06 09:35:02;;;;;;;0.80;0.60;;;;;;;;;;5036285;28;20212;-53
2022/01/06 09:37:29;;;;;;;0.55;0.55;;;;;;;;;;5030373;28;20518;-52
2022/01/06 09:39:57;;;;;;;1.15;0.60;;;;;;;;;;5015283;28;20209;-53
2022/01/06 09:42:24;;;;;;;0.68;0.50;;;;;;;;;;5016120;28;20209;-53
2022/01/06 09:44:53;;;;;;;0.50;0.50;;;;;;;;;;5016512;28;20233;-53
2022/01/06 09:47:21;;;;;;;1.02;0.55;;;;;;;;;;5016334;28;20202;-52
2022/01/06 09:49:49;;;;;;;0.75;0.70;;;;;;;;;;5015799;28;20214;-53
2022/01/06 09:52:17;;;;;;;1.65;0.60;;;;;;;;;;5016105;28;20230;-52
2022/01/06 09:54:44;;;;;;;0.52;0.50;;;;;;;;;;5016327;28;20202;-52
2022/01/06 09:57:14;;;;;;;1.02;0.77;;;;;;;;;;5016810;28;20210;-52
2022/01/06 09:59:43;;;;;;;0.57;0.57;;;;;;;;;;5018539;28;20586;-52
2022/01/06 10:02:16;;;;;;;0.90;0.80;;;;;;;;;;5016086;28;20203;-53
2022/01/06 10:04:44;;;;;;;1.85;0.75;;;;;;;;;;5027364;28;20251;-52
2022/01/06 10:07:15;;;;;;;1.25;0.70;;;;;;;;;;5035932;28;20220;-53
2022/01/06 10:09:43;;;;;;;1.23;0.70;;;;;;;;;;5034741;28;20210;-52
2022/01/06 10:12:13;;;;;;;1.77;0.60;;;;;;;;;;5034434;28;20228;-53
2022/01/06 10:14:43;;;;;;;1.63;0.80;;;;;;;;;;5035830;28;20232;-52
2022/01/06 10:17:10;;;;;;;1.58;0.70;;;;;;;;;;5035811;28;20653;-52
2022/01/06 10:19:40;;;;;;;1.10;0.70;;;;;;;;;;5024523;28;20723;-53
2022/01/06 10:22:12;;;;;;;2.25;0.70;;;;;;;;;;5015585;28;20293;-53
2022/01/06 10:24:44;;;;;;;1.17;0.63;;;;;;;;;;5015829;28;20206;-52
2022/01/06 10:27:12;;;;;;;1.58;0.70;;;;;;;;;;5016307;28;20206;-52
2022/01/06 10:29:40;;;;;;;1.23;0.50;;;;;;;;;;5015532;28;20758;-53
2022/01/06 10:32:08;;;;;;;3.55;0.80;;;;;;;;;;5033136;28;20229;-53
2022/01/06 10:34:36;;;;;;;1.40;0.63;;;;;;;;;;5034630;28;20205;-53
2022/01/06 10:37:05;;;;;;;2.17;0.70;;;;;;;;;;5034152;28;20764;-53
2022/01/06 10:39:42;;;;;;;2.30;1.00;;;;;;;;;;5033855;28;20260;-52
2022/01/06 10:42:10;;;;;;;2.55;1.05;;;;;;;;;;5034970;28;20205;-53
2022/01/06 10:44:46;;;;;;;2.50;1.00;;;;;;;;;;5034955;28;20216;-52
2022/01/06 10:47:13;;;;;;;2.30;1.10;;;;;;;;;;5033559;28;20202;-52
2022/01/06 10:49:40;;;;;;;2.17;1.00;;;;;;;;;;5034769;28;20205;-52
2022/01/06 10:52:08;;;;;;;1.25;0.95;;;;;;;;;;5034139;28;20222;-53
2022/01/06 10:54:38;;;;;;;1.80;1.00;;;;;;;;;;5034323;28;20501;-52
2022/01/06 10:57:09;;;;;;;3.85;1.08;;;;;;;;;;5027791;28;20559;-53
2022/01/06 10:59:37;;;;;;;2.53;0.98;;;;;;;;;;5014853;28;20206;-53
2022/01/06 11:02:05;;;;;;;3.10;1.15;;;;;;;;;;5014804;28;20484;-52
2022/01/06 11:04:33;;;;;;;1.83;1.02;;;;;;;;;;5017516;28;20210;-52
2022/01/06 11:07:00;;;;;;;2.72;0.85;;;;;;;;;;5018310;28;20587;-52
2022/01/06 11:09:30;;;;;;;2.08;1.00;;;;;;;;;;5018341;28;20214;-53
2022/01/06 11:14:46;;;;;;;2.45;1.02;;;;;;;;;;5018837;28;20284;-52
2022/01/06 11:17:13;;;;;;;2.88;0.93;;;;;;;;;;5018706;28;20656;-52
2022/01/06 11:19:40;;;;;;;1.83;0.90;;;;;;;;;;5018359;28;20264;-52
2022/01/06 11:22:09;;;;;;;2.85;0.70;;;;;;;;;;5018350;28;20573;-52
2022/01/06 11:24:38;;;;;;;1.20;0.80;;;;;;;;;;5033678;28;20879;-52
2022/01/06 11:27:08;;;;;;;2.45;0.80;;;;;;;;;;5038972;28;20551;-52
2022/01/06 11:29:37;;;;;;;1.05;0.63;;;;;;;;;;5038319;28;20217;-53
2022/01/06 11:32:07;;;;;;;2.65;0.80;;;;;;;;;;5037866;28;20636;-52
2022/01/06 11:34:38;;;;;;;4.53;0.80;;;;;;;;;;5038001;28;20201;-52
2022/01/06 11:37:10;;;;;;;1.40;0.80;;;;;;;;;;5037620;28;20230;-53
2022/01/06 11:39:38;;;;;;;3.25;0.98;;;;;;;;;;5037960;28;20201;-52
2022/01/06 11:42:15;;;;;;;2.30;0.90;;;;;;;;;;5025995;28;20199;-53
2022/01/06 11:44:54;;;;;;;0.80;0.70;;;;;;;;;;5017064;28;20205;-53
2022/01/06 11:47:34;;;;;;;2.80;0.80;;;;;;;;;;5016488;28;20213;-53
2022/01/06 11:50:10;;;;;;;1.38;0.70;;;;;;;;;;5016929;28;20217;-53
2022/01/06 11:52:38;;;;;;;2.45;0.90;;;;;;;;;;5018141;28;20230;-53
2022/01/06 11:55:14;;;;;;;3.05;0.80;;;;;;;;;;5026933;28;20206;-53
2022/01/06 11:57:41;;;;;;;1.48;0.70;;;;;;;;;;5026226;28;20252;-53
2022/01/06 12:00:16;;;;;;;0.95;0.60;;;;;;;;;;5017836;28;20206;-53
2022/01/06 12:02:45;;;;;;;1.67;0.68;;;;;;;;;;5016819;28;20209;-53
2022/01/06 12:05:13;;;;;;;1.27;0.60;;;;;;;;;;5018033;28;20309;-53
2022/01/06 12:07:50;;;;;;;1.00;0.82;;;;;;;;;;5036108;28;20198;-53
2022/01/06 12:10:17;;;;;;;0.93;0.70;;;;;;;;;;5036537;28;20205;-52
2022/01/06 12:12:45;;;;;;;1.20;0.90;;;;;;;;;;5037362;28;20786;-52
2022/01/06 12:15:13;;;;;;;1.48;0.80;;;;;;;;;;5035621;28;20198;-53
2022/01/06 12:17:47;;;;;;;1.15;0.70;;;;;;;;;;5036840;28;20453;-53
2022/01/06 12:20:21;;;;;;;0.60;0.57;;;;;;;;;;5036392;28;20232;-54
2022/01/06 12:22:48;;;;;;;2.15;0.77;;;;;;;;;;5036614;28;20494;-53
2022/01/06 12:25:15;;;;;;;1.40;0.80;;;;;;;;;;5036960;28;20488;-53
2022/01/06 12:27:48;;;;;;;2.67;1.10;;;;;;;;;;5037090;28;20244;-53
2022/01/06 12:30:16;;;;;;;1.05;0.50;;;;;;;;;;5036729;28;20210;-53
2022/01/06 12:32:43;;;;;;;1.05;0.65;;;;;;;;;;5027214;28;20222;-53
2022/01/06 12:35:10;;;;;;;1.25;0.68;;;;;;;;;;5016902;28;20206;-53
2022/01/06 12:37:39;;;;;;;1.55;0.60;;;;;;;;;;5017236;28;20314;-53
2022/01/06 12:40:07;;;;;;;0.77;0.50;;;;;;;;;;5016650;28;20214;-53
2022/01/06 12:42:42;;;;;;;1.15;0.57;;;;;;;;;;5016943;28;20598;-53
2022/01/06 12:45:11;;;;;;;1.55;0.70;;;;;;;;;;5016517;28;20217;-53
2022/01/06 12:47:47;;;;;;;1.70;0.80;;;;;;;;;;5016070;28;20206;-53
2022/01/06 12:50:17;;;;;;;1.02;0.52;;;;;;;;;;5016623;28;20225;-53
2022/01/06 12:52:48;;;;;;;0.60;0.57;;;;;;;;;;5016301;28;20664;-53
2022/01/06 12:55:15;;;;;;;0.82;0.60;;;;;;;;;;5016135;28;20317;-53
2022/01/06 12:57:51;;;;;;;1.08;0.60;;;;;;;;;;5015641;28;20211;-53
2022/01/06 13:00:19;;;;;;;0.85;0.57;;;;;;;;;;5016636;28;20226;-53
2022/01/06 13:03:01;;;;;;;0.85;0.57;;;;;;;;;;5015412;28;20292;-53
2022/01/06 13:05:28;;;;;;;1.00;0.57;;;;;;;;;;5016089;28;20467;-53
2022/01/06 13:08:03;;;;;;;1.38;0.60;;;;;;;;;;5015699;28;20214;-53
2022/01/06 13:10:31;;;;;;;0.63;0.50;;;;;;;;;;5017076;28;20202;-53
2022/01/06 13:13:05;;;;;;;1.10;0.90;;;;;;;;;;5015714;28;20634;-53
2022/01/06 13:15:33;;;;;;;1.13;0.60;;;;;;;;;;5016253;28;20279;-52
2022/01/06 13:18:01;;;;;;;0.73;0.40;;;;;;;;;;5015800;28;20237;-53
2022/01/06 13:20:35;;;;;;;1.48;0.57;;;;;;;;;;5015658;28;20206;-53
2022/01/06 13:23:41;;;;;;;0.77;0.50;;;;;;;;;;5015815;28;20311;-53
2022/01/06 13:26:05;;;;;;;1.23;0.60;;;;;;;;;;5017269;28;20709;-54
2022/01/06 13:28:33;;;;;;;0.70;0.55;;;;;;;;;;5033756;28;20226;-53
2022/01/06 13:31:00;;;;;;;0.82;0.50;;;;;;;;;;5034734;28;20205;-53
2022/01/06 13:33:31;;;;;;;0.63;0.50;;;;;;;;;;5035512;28;20229;-53
2022/01/06 13:35:59;;;;;;;0.80;0.63;;;;;;;;;;5035802;28;20605;-53
2022/01/06 13:38:28;;;;;;;0.82;0.63;;;;;;;;;;5035590;28;20545;-53
2022/01/06 13:40:58;;;;;;;0.73;0.40;;;;;;;;;;5035649;28;20216;-52
2022/01/06 13:43:26;;;;;;;1.05;0.60;;;;;;;;;;5035209;28;20341;-53
2022/01/06 13:45:53;;;;;;;1.00;0.60;;;;;;;;;;5035119;28;20209;-53
2022/01/06 13:48:39;;;;;;;0.40;0.40;;;;;;;;;;5035262;28;20205;-53
2022/01/06 13:51:11;;;;;;;0.65;0.57;;;;;;;;;;5034355;28;20207;-52
2022/01/06 13:53:42;;;;;;;0.50;0.50;;;;;;;;;;5031914;28;20218;-53
2022/01/06 13:56:10;;;;;;;0.50;0.40;;;;;;;;;;5015025;28;20788;-53
2022/01/06 13:58:38;;;;;;;0.47;0.47;;;;;;;;;;5015668;28;20210;-53
2022/01/06 14:01:06;;;;;;;0.70;0.60;;;;;;;;;;5015372;28;20617;-53
2022/01/06 14:03:34;;;;;;;0.55;0.50;;;;;;;;;;5014809;28;20232;-53
2022/01/06 14:06:02;;;;;;;0.90;0.38;;;;;;;;;;5014856;28;20240;-53
2022/01/06 14:08:30;;;;;;;1.08;0.60;;;;;;;;;;5014297;28;20206;-53
2022/01/06 14:10:59;;;;;;;0.63;0.55;;;;;;;;;;5014931;28;20210;-53
2022/01/06 14:13:26;;;;;;;0.50;0.50;;;;;;;;;;5014957;28;20256;-53
2022/01/06 14:15:53;;;;;;;0.70;0.52;;;;;;;;;;5015490;28;20217;-53
2022/01/06 14:18:21;;;;;;;0.50;0.50;;;;;;;;;;5014430;28;20630;-52
2022/01/06 14:20:48;;;;;;;0.70;0.50;;;;;;;;;;5022191;28;20197;-53
2022/01/06 14:23:15;;;;;;;0.40;0.40;;;;;;;;;;5034035;28;20201;-53
2022/01/06 14:25:45;;;;;;;0.65;0.63;;;;;;;;;;5034236;28;20206;-53
2022/01/06 14:28:14;;;;;;;0.65;0.43;;;;;;;;;;5034992;28;20613;-52
2022/01/06 14:30:41;;;;;;;0.43;0.43;;;;;;;;;;5033930;28;20209;-53
2022/01/06 14:33:09;;;;;;;0.95;0.60;;;;;;;;;;5033995;28;20232;-53
2022/01/06 14:35:37;;;;;;;1.05;0.60;;;;;;;;;;5034948;28;20237;-53
2022/01/06 14:38:04;;;;;;;0.47;0.40;;;;;;;;;;5034547;28;20205;-52
2022/01/06 14:40:32;;;;;;;0.68;0.60;;;;;;;;;;5034695;28;20218;-53
2022/01/06 14:43:00;;;;;;;0.60;0.60;;;;;;;;;;5034399;28;20206;-53
2022/01/06 14:45:31;;;;;;;0.90;0.55;;;;;;;;;;5034434;28;20228;-53
2022/01/06 14:47:59;;;;;;;1.00;0.63;;;;;;;;;;5028678;28;20217;-53
2022/01/06 14:50:26;;;;;;;2.17;1.98;;;;;;;;;;5024275;28;20202;-53
2022/01/06 14:52:53;;;;;;;3.20;2.88;;;;;;;;;;5034798;28;20225;-53
2022/01/06 14:55:21;;;;;;;3.17;2.20;;;;;;;;;;5035177;28;20205;-53
2022/01/06 14:57:49;;;;;;;2.20;2.00;;;;;;;;;;5034479;28;20205;-53
2022/01/06 15:00:17;;;;;;;2.63;2.28;;;;;;;;;;5033528;28;20216;-52